Racecast

Mikaela Kendall

Heritage Christian (IN) · 12 · CO D2A2A · Compare head to head

Athlete rating 129.1 2026 TF season
Best race 137.2 XC
Races 48
Seasons 5 2022 — 2026

RankedNation #4952·CO #220·CO D2A #41·Team #3 ?

Speed rating — all races

Cross Country

XC speed rating

2024 XC 132.5

Heritage Christian (IN) · Grade 11

Date Meet Event Result Place Rating Difficulty PR/SR Flags
2024-11-02 Norris Penrose Event Center 5000m 19:52.1 3rd · 1st on team 131.4 +0.067 CSR
2024-10-24 Lyons Middle/High School 5000m 19:46.3 1st · 1st on team 128.8 +0.046 ★CR CSR
2024-09-14 Heritage High School 5000m 18:14.1 1st · 1st on team 137.2 -0.001 ★PR ★CR ★R SR CSR RSR

2023 XC 126.3

Heritage Christian (IN) · Grade 10

Date Meet Event Result Place Rating Difficulty PR/SR Flags
2023-10-28 Norris Penrose Event Center 5000m 19:22.6 2nd · 1st on team 134.4 +0.067 ★CR R SR CSR RSR
2023-10-19 Lyons Middle/High School 5000m 20:22.3 1st · 1st on team 126.4 +0.046 CR CSR
2023-09-30 Mead High School 5000m 19:32.8 8th · 1st on team 129.0 +0.011 ★CR SR CSR RSR
2023-09-09 Heritage High School 5000m 19:36.4 10th · 1st on team 128.2 -0.001 CR SR CSR RSR
2023-08-25 Norris Penrose Event Center 5000m 23:01.6 28th · 6th on team 113.8 +0.067 SR CSR RSR

2022 XC 122.1

Heritage Christian (IN) · Grade 9

Date Meet Event Result Place Rating Difficulty PR/SR Flags
2022-11-19 Coyote Run Golf Course at Leisure World 5000m 19:21 9th · 1st on team 132.7 +0.029 PR ★CR R SR CSR RSR
2022-10-29 Norris Penrose Event Center 5000m 20:16.6 4th · 1st on team 130.4 +0.067 CR R CSR RSR
2022-10-21 Lyons Middle/High School 5000m 22:13.1 1st · 1st on team 116.6 +0.046
2022-10-11 Jason Sams Memorial Park 5000m 20:10.6 1st · 1st on team 129.8 +0.046 ★CR R CSR RSR
2022-09-30 North Lake Park 5000m 20:04 8th · 1st on team 129.1 +0.041 PR ★CR R SR CSR RSR
2022-09-17 Lyons Middle/High School 5000m 21:56.9 18th · 4th on team 119.2 +0.046 CR CSR
2022-09-10 Heritage High School 5000m 20:11 8th · 1st on team 120.2 -0.001 CR CSR
2022-09-02 Norris Penrose Event Center 5000m 23:53.4 17th · 4th on team 111.6 +0.067 CR CSR
2022-08-27 Fort Collins High School 5000m 20:09 9th · 1st on team 127.2 +0.023 PR ★CR R SR CSR RSR
2022-08-20 Spring Canyon Park 5000m 24:50 56th · 1st on team 103.9 +0.037 PR ★CR R SR CSR RSR

Track & Field

TF speed rating

2026 TF 125.9

Heritage Christian (IN) · Grade 12

Date Meet Event Result Place Rating Difficulty PR/SR Flags
2026-05-16 CHSAA State Championship 800m 2:34.47 17th · 1st on team 121.2 -0.011
2026-05-16 CHSAA State Championship 3200m 12:10.13 13th · 3rd on team 123.5 -0.011
2026-05-02 Three League Meet 3200m 11:49.04 3rd · 3rd on team 126.9 -0.013 SR
2026-04-24 Longmont Invitational 800m 2:26.26 9th · 1st on team 127.5 -0.015 SR
2026-04-08 Randy Yaussi PSD Meet 1600m 5:20.18 2nd · 1st on team 130.3 -0.012 ★PR SR RSR

2025 TF 131.7

Heritage Christian (IN) · Grade 11

Date Meet Event Result Place Rating Difficulty PR/SR Flags
2025-05-15 CHSAA State Track & Field Championships 3200m 11:42.65 3rd · 1st on team 128.3 -0.011
2025-05-15 CHSAA State Track & Field Championships 800m 2:24.27 8th · 2nd on team 130.5 -0.011
2025-05-15 CHSAA State Track & Field Championships 1600m 5:21.43 7th · 2nd on team 130.2 -0.011 PR SR
2025-04-05 Altitude Running Invite 3200m 11:03.08 4th · 1st on team 135.6 -0.012 ★PR SR RSR
2025-04-05 Altitude Running Invite 400m 1:02.47 6th · 1st on team -0.012 ★PR SR
2025-03-29 University Bulldog Invitational 800m 2:20.69 2nd · 1st on team 133.7 -0.011 ★PR SR RSR

2024 TF 127.1

Heritage Christian (IN) · Grade 10

Date Meet Event Result Place Rating Difficulty PR/SR Flags
2024-05-18 COLORADO STATE CHAMPIONSHIPS 3200m 11:55.46 6th · 2nd on team 126.5 -0.011
2024-05-18 COLORADO STATE CHAMPIONSHIPS 1600m 5:21.66 4th · 2nd on team 130.3 -0.011 PR SR RSR
2024-05-18 COLORADO STATE CHAMPIONSHIPS 800m 2:23.83 5th · 2nd on team 130.9 -0.011 PR SR RSR
2024-05-11 Teddy's Last Chance Qualifier 3200m 11:45.94 3rd · 1st on team 126.6 -0.014 SR
2024-05-10 HOKA St. Vrain Invitational 3200m 12:25.33 36th · 1st on team 119.7 -0.015 SR
2024-03-30 University Bulldog Invitational 800m 2:25.08 2nd · 1st on team 129.1 -0.011 SR RSR
2024-03-30 University Bulldog Invitational 1600m 5:29.3 3rd · 1st on team 126.3 -0.011 SR

2023 TF 126.6

Heritage Christian (IN) · Grade 9

Date Meet Event Result Place Rating Difficulty PR/SR Flags
2023-05-20 Colorado 2A State Championships 800m 2:24.8 3rd · 1st on team 129.7 -0.011 PR SR
2023-05-20 Colorado 2A State Championships 3200m 11:46.99 1st · 1st on team 126.9 -0.011
2023-05-05 Longs Peak/NCAC/Mile High League Meets 3200m 11:58.17 1st · 1st on team 125.0 -0.015
2023-05-05 Longs Peak/NCAC/Mile High League Meets 800m 2:26.05 1st · 1st on team 128.3 -0.015 PR SR
2023-05-05 Longs Peak/NCAC/Mile High League Meets 1600m 5:29.66 1st · 1st on team 126.4 -0.015
2023-04-28 Longmont Invitational 1600m 5:21.76 1st · 1st on team 130.2 -0.015 PR SR RSR
2023-04-15 The Pomona Invitational 1600m 5:29.22 16th · 1st on team 127.2 -0.011 PR SR
2023-04-15 The Pomona Invitational 3200m 11:30.22 17th · 1st on team 130.1 -0.011 PR SR RSR
2023-04-08 Fightin' Red Invitational 800m 2:29.5 2nd · 1st on team 126.0 -0.008 PR SR
2023-03-31 Jack Christensen Invitational 3200m 11:46.7 1st · 1st on team 128.8 -0.013 PR SR RSR
2023-03-24 Runners Roost of Fort Collins Invitational 1600m 5:43.77 11th · 1st on team 121.7 -0.011 PR SR RSR
2023-03-24 Runners Roost of Fort Collins Invitational 800m 2:38.54 17th · 1st on team 118.7 -0.011 PR SR